Time;durP1;ratioP1;P1;durP2;ratioP2;P2;SDS_P1;SDS_P2;PMS_P1;PMS_P2;Temp;Humidity;BMP_temperature;BMP_pressure;BME280_temperature;BME280_humidity;BME280_pressure;Samples;Min_cycle;Max_cycle;Signal;HPM_P1;HPM_P2
2021/04/08 00:02:04;;;;;;;8.98;2.83;;;1.70;78.80;;;;;;6197870;23;20068;-59
2021/04/08 00:04:30;;;;;;;4.50;2.70;;;1.80;78.30;;;;;;6195078;23;20005;-59
2021/04/08 00:06:55;;;;;;;5.55;3.00;;;1.80;77.60;;;;;;6201876;23;20319;-59
2021/04/08 00:09:21;;;;;;;4.13;3.00;;;1.90;77.00;;;;;;6204165;23;20072;-60
2021/04/08 00:11:47;;;;;;;7.97;3.25;;;2.00;77.00;;;;;;6206976;23;20162;-59
2021/04/08 00:14:12;;;;;;;6.63;3.33;;;2.10;77.20;;;;;;6197071;23;20008;-58
2021/04/08 00:16:38;;;;;;;7.25;3.47;;;2.10;77.10;;;;;;6199161;23;20068;-58
2021/04/08 00:19:07;;;;;;;3.97;2.78;;;1.90;76.70;;;;;;6201501;23;20297;-59
2021/04/08 00:21:33;;;;;;;6.35;3.15;;;1.90;77.00;;;;;;6194817;23;20188;-60
2021/04/08 00:23:58;;;;;;;6.10;3.13;;;2.00;77.40;;;;;;6206792;23;19997;-58
2021/04/08 00:26:24;;;;;;;5.50;3.13;;;2.00;76.50;;;;;;6196216;23;20021;-59
2021/04/08 00:28:49;;;;;;;5.03;2.75;;;2.00;76.60;;;;;;6197976;23;20072;-59
2021/04/08 00:31:15;;;;;;;5.43;3.00;;;2.00;77.20;;;;;;6200247;23;20001;-59
2021/04/08 00:33:40;;;;;;;6.85;3.17;;;2.20;76.80;;;;;;6202726;23;20157;-59
2021/04/08 00:36:06;;;;;;;5.82;3.10;;;2.20;76.10;;;;;;6206602;23;20075;-59
2021/04/08 00:38:32;;;;;;;6.25;3.05;;;2.20;75.40;;;;;;6195719;23;20005;-59
2021/04/08 00:40:57;;;;;;;6.22;2.85;;;2.10;75.60;;;;;;6197347;23;20196;-59
2021/04/08 00:43:23;;;;;;;6.00;3.13;;;2.10;75.90;;;;;;6199869;23;20052;-58
2021/04/08 00:45:48;;;;;;;5.88;2.75;;;2.10;76.10;;;;;;6202188;23;20354;-58
2021/04/08 00:48:14;;;;;;;4.90;3.08;;;2.10;76.20;;;;;;6206609;23;20166;-59
2021/04/08 00:50:39;;;;;;;6.28;2.80;;;1.90;76.50;;;;;;6195030;23;20061;-60
2021/04/08 00:53:11;;;;;;;5.07;2.55;;;2.10;76.60;;;;;;6197267;23;20020;-59
2021/04/08 00:55:39;;;;;;;7.53;3.03;;;2.00;76.00;;;;;;6197232;23;20173;-59
2021/04/08 00:58:05;;;;;;;5.40;3.00;;;1.90;76.30;;;;;;6199871;23;20051;-59
2021/04/08 01:00:31;;;;;;;4.45;2.75;;;1.90;76.40;;;;;;6203271;23;20001;-59
2021/04/08 01:02:56;;;;;;;5.28;2.78;;;1.90;76.50;;;;;;6206550;23;19998;-58
2021/04/08 01:05:22;;;;;;;5.80;3.00;;;2.10;76.00;;;;;;6194736;23;20011;-59
2021/04/08 01:07:48;;;;;;;5.63;2.80;;;2.30;75.30;;;;;;6196297;23;20017;-59
2021/04/08 01:10:14;;;;;;;6.22;2.70;;;2.40;74.90;;;;;;6198824;23;20016;-59
2021/04/08 01:12:39;;;;;;;5.18;2.83;;;2.20;76.20;;;;;;6194335;23;20005;-59
2021/04/08 01:15:06;;;;;;;7.18;2.67;;;2.40;76.10;;;;;;6206428;23;20008;-59
2021/04/08 01:17:47;;;;;;;5.00;2.88;;;2.30;75.30;;;;;;6193285;23;20033;-60
2021/04/08 01:20:12;;;;;;;;;;;2.40;75.60;;;;;;6195837;23;20005;-60
2021/04/08 01:22:53;;;;;;;6.70;2.75;;;2.50;73.80;;;;;;6194186;23;19908;-58
2021/04/08 01:26:03;;;;;;;8.95;3.20;;;2.50;73.50;;;;;;6199983;23;20029;-59
2021/04/08 01:28:33;;;;;;;5.55;2.63;;;2.80;73.50;;;;;;6180050;23;20009;-59
2021/04/08 01:31:00;;;;;;;5.15;2.78;;;2.90;72.90;;;;;;6199947;23;20008;-59
2021/04/08 01:33:30;;;;;;;6.90;2.67;;;3.10;72.30;;;;;;6202008;23;20001;-59
2021/04/08 01:35:55;;;;;;;6.13;2.60;;;3.10;71.00;;;;;;6204937;23;20001;-60
2021/04/08 01:38:31;;;;;;;4.25;2.47;;;3.10;71.30;;;;;;6194606;23;20051;-59
2021/04/08 01:40:57;;;;;;;6.47;2.60;;;3.20;70.00;;;;;;6196274;23;20051;-59
2021/04/08 01:43:27;;;;;;;5.85;2.53;;;3.20;70.40;;;;;;6200275;23;20068;-59
2021/04/08 01:45:54;;;;;;;4.28;2.38;;;3.20;70.60;;;;;;6203609;23;20064;-59
2021/04/08 01:48:20;;;;;;;5.07;2.17;;;3.10;70.70;;;;;;6204710;23;20104;-59
2021/04/08 01:50:45;;;;;;;4.68;2.30;;;3.10;70.70;;;;;;6208253;23;20066;-59
2021/04/08 01:53:13;;;;;;;3.67;2.22;;;2.90;70.20;;;;;;6197078;23;20007;-59
2021/04/08 01:55:38;;;;;;;4.32;2.20;;;2.90;71.40;;;;;;6199056;23;20005;-59
2021/04/08 01:58:04;;;;;;;4.22;2.45;;;2.80;70.70;;;;;;6201435;23;20009;-58
2021/04/08 02:00:29;;;;;;;4.03;2.30;;;2.70;70.50;;;;;;6203626;23;20021;-59
2021/04/08 02:02:56;;;;;;;6.32;2.55;;;2.90;70.70;;;;;;6208504;23;20001;-59
2021/04/08 02:05:22;;;;;;;4.93;2.42;;;2.80;70.10;;;;;;6196119;23;20020;-59
2021/04/08 02:07:48;;;;;;;5.43;2.70;;;2.90;69.80;;;;;;6197790;23;20024;-59
2021/04/08 02:10:14;;;;;;;4.93;2.30;;;2.90;68.90;;;;;;6200425;23;20009;-60
2021/04/08 02:12:40;;;;;;;7.18;2.50;;;2.80;68.50;;;;;;6204536;23;20001;-59
2021/04/08 02:15:06;;;;;;;5.28;2.17;;;2.60;68.70;;;;;;6206785;23;20052;-59
2021/04/08 02:17:34;;;;;;;7.05;2.47;;;2.60;67.50;;;;;;6195889;23;20020;-59
2021/04/08 02:19:59;;;;;;;6.35;2.20;;;2.80;69.20;;;;;;6197700;23;20009;-59
2021/04/08 02:22:25;;;;;;;6.40;2.47;;;2.80;68.20;;;;;;6199762;23;20005;-59
2021/04/08 02:24:50;;;;;;;4.80;2.20;;;2.80;68.80;;;;;;6202162;23;20001;-58
2021/04/08 02:27:16;;;;;;;4.40;2.05;;;2.60;68.20;;;;;;6206593;23;20008;-59
2021/04/08 02:29:41;;;;;;;4.75;2.40;;;2.60;68.10;;;;;;6196370;23;20289;-59
2021/04/08 02:32:08;;;;;;;4.15;2.30;;;2.80;68.30;;;;;;6196716;23;20012;-59
2021/04/08 02:34:34;;;;;;;5.55;2.50;;;2.80;66.80;;;;;;6200205;23;20032;-59
2021/04/08 02:37:00;;;;;;;4.35;2.17;;;2.70;67.30;;;;;;6201079;23;20013;-59
2021/04/08 02:39:25;;;;;;;8.50;2.50;;;2.70;67.40;;;;;;6203486;23;20104;-59
2021/04/08 02:41:51;;;;;;;4.57;2.20;;;2.70;67.50;;;;;;6207806;23;20001;-59
2021/04/08 02:44:16;;;;;;;5.28;2.10;;;2.90;67.40;;;;;;6198084;23;20292;-59
2021/04/08 02:46:42;;;;;;;5.38;2.30;;;2.80;67.30;;;;;;6199715;23;20029;-59
2021/04/08 02:49:07;;;;;;;5.22;2.50;;;2.70;66.90;;;;;;6201806;23;20005;-59
2021/04/08 02:51:46;;;;;;;6.38;2.55;;;2.90;67.60;;;;;;6203201;23;20044;-59
2021/04/08 02:54:38;;;;;;;5.78;2.30;;;2.70;67.10;;;;;;6205927;23;20001;-59
2021/04/08 02:57:04;;;;;;;;;;;2.80;66.90;;;;;;6155409;23;20278;-59
2021/04/08 02:59:49;;;;;;;7.03;2.33;;;2.90;67.00;;;;;;6189603;23;19901;-59
2021/04/08 03:02:17;;;;;;;5.45;2.30;;;3.00;67.10;;;;;;6192071;23;20012;-59
2021/04/08 03:04:47;;;;;;;4.38;2.03;;;2.90;66.60;;;;;;6199500;23;20047;-59
2021/04/08 03:07:13;;;;;;;7.07;2.10;;;2.90;66.10;;;;;;6199821;23;20173;-59
2021/04/08 03:09:40;;;;;;;5.18;2.13;;;3.00;66.50;;;;;;6203024;23;20036;-59
2021/04/08 03:12:10;;;;;;;3.78;2.10;;;3.00;66.30;;;;;;6206255;23;19997;-59
2021/04/08 03:14:41;;;;;;;3.65;2.20;;;2.90;66.70;;;;;;6196239;23;20016;-59
2021/04/08 03:17:07;;;;;;;4.20;2.35;;;3.00;66.80;;;;;;6196173;23;20028;-59
2021/04/08 03:19:33;;;;;;;3.75;2.10;;;3.00;66.80;;;;;;6198842;23;20048;-59
2021/04/08 03:21:58;;;;;;;4.32;2.20;;;3.10;66.90;;;;;;6200830;23;20288;-59
2021/04/08 03:24:24;;;;;;;5.13;2.53;;;3.20;66.90;;;;;;6203218;23;19997;-59
2021/04/08 03:26:49;;;;;;;4.70;2.35;;;3.20;67.20;;;;;;6206068;23;19997;-59
2021/04/08 03:29:15;;;;;;;5.28;2.38;;;3.30;67.50;;;;;;6195696;23;20022;-58
2021/04/08 03:31:44;;;;;;;5.55;2.55;;;3.40;67.50;;;;;;6198217;23;20008;-59
2021/04/08 03:34:10;;;;;;;7.20;3.20;;;3.40;67.70;;;;;;6201792;23;20009;-59
2021/04/08 03:36:36;;;;;;;6.30;3.10;;;3.40;67.90;;;;;;6202229;23;20176;-59
2021/04/08 03:39:01;;;;;;;4.32;2.50;;;3.30;68.30;;;;;;6207318;23;20021;-59
2021/04/08 03:41:27;;;;;;;5.82;2.50;;;3.20;69.00;;;;;;6196237;23;20012;-59
2021/04/08 03:43:52;;;;;;;4.10;2.70;;;3.30;69.10;;;;;;6193985;23;20221;-59
2021/04/08 03:46:18;;;;;;;4.40;2.40;;;3.30;69.10;;;;;;6199439;23;20201;-60
2021/04/08 03:48:43;;;;;;;8.40;2.42;;;3.40;68.70;;;;;;6201694;23;20011;-60
2021/04/08 03:51:09;;;;;;;6.32;2.85;;;3.30;69.00;;;;;;6195367;23;20001;-59
2021/04/08 03:53:35;;;;;;;4.47;2.75;;;3.20;69.40;;;;;;6195926;23;20015;-59
2021/04/08 03:56:01;;;;;;;6.15;2.80;;;3.30;69.20;;;;;;6196188;23;20005;-59
2021/04/08 03:58:26;;;;;;;7.15;2.80;;;3.20;69.30;;;;;;6168822;23;20205;-59
2021/04/08 04:00:52;;;;;;;7.72;2.80;;;3.00;69.60;;;;;;6179470;23;20005;-59
2021/04/08 04:03:18;;;;;;;7.50;2.92;;;3.10;69.90;;;;;;6203587;23;20021;-58
2021/04/08 04:05:44;;;;;;;5.30;2.45;;;3.20;69.20;;;;;;6205759;23;19993;-59
2021/04/08 04:08:10;;;;;;;4.68;2.78;;;3.30;68.90;;;;;;6196763;23;20017;-59
2021/04/08 04:10:36;;;;;;;4.20;2.55;;;3.30;68.80;;;;;;6197889;23;20005;-58
2021/04/08 04:13:02;;;;;;;4.55;2.53;;;3.30;69.20;;;;;;6200414;23;20210;-59
2021/04/08 04:15:28;;;;;;;5.35;2.53;;;3.40;68.90;;;;;;6204003;23;20021;-59
2021/04/08 04:17:54;;;;;;;4.47;3.00;;;3.40;68.60;;;;;;6206695;23;20354;-59
2021/04/08 04:20:20;;;;;;;5.60;2.85;;;3.50;68.50;;;;;;6197053;23;20001;-59
2021/04/08 04:22:45;;;;;;;7.80;2.85;;;3.30;68.50;;;;;;6197463;23;20168;-59
2021/04/08 04:25:12;;;;;;;5.03;2.63;;;3.40;69.00;;;;;;6200884;23;20009;-59
2021/04/08 04:27:37;;;;;;;5.82;2.80;;;3.40;68.90;;;;;;6195258;23;20017;-59
2021/04/08 04:30:04;;;;;;;5.20;2.67;;;3.40;68.50;;;;;;6205245;23;20035;-59
2021/04/08 04:32:29;;;;;;;4.97;2.70;;;3.50;68.60;;;;;;6195868;23;20009;-59
2021/04/08 04:34:55;;;;;;;4.47;2.70;;;3.60;68.20;;;;;;6193070;23;20036;-59
2021/04/08 04:37:20;;;;;;;6.22;2.88;;;3.50;68.30;;;;;;6198266;23;20067;-58
2021/04/08 04:39:46;;;;;;;8.38;3.33;;;3.60;67.80;;;;;;6202189;23;20009;-59
2021/04/08 04:42:12;;;;;;;4.97;2.60;;;3.60;67.90;;;;;;6206250;23;20008;-59
2021/04/08 04:44:38;;;;;;;6.35;2.75;;;3.60;67.80;;;;;;6195251;23;20012;-60
2021/04/08 04:47:03;;;;;;;5.22;2.47;;;3.80;67.80;;;;;;6196872;23;20209;-60
2021/04/08 04:49:29;;;;;;;4.78;2.95;;;3.70;67.30;;;;;;6199224;23;20008;-60
2021/04/08 04:51:54;;;;;;;5.40;2.60;;;3.80;67.00;;;;;;6201605;23;20003;-61
2021/04/08 04:54:20;;;;;;;5.07;2.50;;;3.80;67.40;;;;;;6204316;23;19997;-61
2021/04/08 04:56:45;;;;;;;5.03;2.58;;;3.80;67.20;;;;;;6206012;23;20020;-61
2021/04/08 04:59:11;;;;;;;6.88;3.13;;;3.80;67.10;;;;;;6196183;23;20296;-60
2021/04/08 05:01:36;;;;;;;5.00;3.03;;;3.80;67.10;;;;;;6198612;23;20004;-60
2021/04/08 05:04:02;;;;;;;7.13;2.88;;;3.90;67.20;;;;;;6201032;23;20004;-60
2021/04/08 05:06:28;;;;;;;5.85;3.13;;;3.90;66.90;;;;;;6203160;23;20028;-61
2021/04/08 05:08:53;;;;;;;6.38;2.90;;;3.80;67.00;;;;;;6205911;23;20020;-61
2021/04/08 05:11:19;;;;;;;5.93;3.17;;;3.90;66.60;;;;;;6196102;23;20303;-60
2021/04/08 05:13:44;;;;;;;4.65;2.58;;;3.90;66.80;;;;;;6198261;23;20028;-61
2021/04/08 05:16:10;;;;;;;4.95;2.83;;;3.70;66.10;;;;;;6200301;23;20009;-60
2021/04/08 05:18:35;;;;;;;7.28;2.72;;;3.70;66.60;;;;;;6202603;23;20028;-61
2021/04/08 05:21:01;;;;;;;4.95;2.70;;;3.40;67.20;;;;;;6206287;23;19997;-60
2021/04/08 05:23:26;;;;;;;4.55;2.88;;;3.40;66.90;;;;;;6195287;23;20007;-60
2021/04/08 05:25:52;;;;;;;6.00;3.08;;;3.40;66.40;;;;;;6194471;23;20029;-60
2021/04/08 05:28:18;;;;;;;5.32;3.15;;;3.20;67.20;;;;;;6194335;23;20068;-60
2021/04/08 05:30:43;;;;;;;7.53;3.30;;;3.00;67.00;;;;;;6202332;23;20060;-60
2021/04/08 05:33:09;;;;;;;8.27;3.75;;;3.20;67.10;;;;;;6206155;23;20000;-60
2021/04/08 05:35:35;;;;;;;7.13;3.80;;;3.30;66.20;;;;;;6194946;23;20343;-60
2021/04/08 05:38:00;;;;;;;6.90;3.45;;;3.30;66.30;;;;;;6197126;23;20064;-60
2021/04/08 05:40:26;;;;;;;7.18;3.33;;;3.20;67.00;;;;;;6199246;23;20056;-60
2021/04/08 05:42:51;;;;;;;7.13;3.38;;;3.20;66.60;;;;;;6201406;23;20005;-59
2021/04/08 05:45:18;;;;;;;6.57;3.28;;;3.30;67.00;;;;;;6204259;23;20004;-60
2021/04/08 05:47:44;;;;;;;8.20;3.63;;;3.20;65.50;;;;;;6196079;23;20043;-59
2021/04/08 05:50:10;;;;;;;6.20;3.40;;;3.30;66.40;;;;;;6195961;23;20005;-60
2021/04/08 05:52:36;;;;;;;6.47;3.47;;;3.30;67.00;;;;;;6194124;23;20024;-60
2021/04/08 05:55:02;;;;;;;8.38;3.50;;;3.10;66.90;;;;;;6193055;23;20001;-60
2021/04/08 05:57:28;;;;;;;6.88;3.88;;;3.20;67.00;;;;;;6193983;23;20013;-59
2021/04/08 05:59:54;;;;;;;7.82;3.88;;;3.30;67.50;;;;;;6205896;23;19997;-60
2021/04/08 06:02:19;;;;;;;7.40;3.70;;;3.40;67.30;;;;;;6195931;23;20012;-60
2021/04/08 06:04:45;;;;;;;9.93;3.53;;;3.30;67.00;;;;;;6198251;23;20009;-59
2021/04/08 06:07:10;;;;;;;8.48;3.97;;;3.30;67.00;;;;;;6200083;23;20012;-59
2021/04/08 06:09:36;;;;;;;6.78;3.40;;;3.40;66.90;;;;;;6202815;23;20052;-60
2021/04/08 06:12:01;;;;;;;7.38;3.30;;;3.40;67.00;;;;;;6205728;23;20166;-59
2021/04/08 06:14:27;;;;;;;8.68;4.45;;;3.40;66.50;;;;;;6195324;23;20012;-60
2021/04/08 06:16:53;;;;;;;6.47;3.63;;;3.30;66.90;;;;;;6197384;23;20009;-60
2021/04/08 06:19:18;;;;;;;6.75;3.33;;;3.30;67.00;;;;;;6199411;23;20061;-60
2021/04/08 06:21:44;;;;;;;6.70;3.00;;;3.40;66.90;;;;;;6202306;23;20001;-59
2021/04/08 06:24:09;;;;;;;7.85;3.45;;;3.40;67.20;;;;;;6195985;23;20197;-59
2021/04/08 06:26:35;;;;;;;9.43;3.70;;;3.30;67.10;;;;;;6194342;23;20032;-59
2021/04/08 06:29:01;;;;;;;5.72;3.15;;;3.50;67.10;;;;;;6198586;23;20285;-60
2021/04/08 06:31:27;;;;;;;6.55;3.58;;;3.50;66.90;;;;;;6195911;23;20012;-59
2021/04/08 06:33:53;;;;;;;4.93;3.10;;;3.30;67.00;;;;;;6202717;23;20059;-59
2021/04/08 06:36:19;;;;;;;11.25;3.63;;;3.30;67.60;;;;;;6205250;23;20087;-60
2021/04/08 06:38:46;;;;;;;6.13;3.35;;;3.40;67.60;;;;;;6207486;23;20004;-59
2021/04/08 06:41:11;;;;;;;8.60;3.53;;;3.60;67.10;;;;;;6194479;23;20029;-59
2021/04/08 06:43:38;;;;;;;5.70;3.35;;;3.70;67.20;;;;;;6200132;23;20068;-59
2021/04/08 06:46:03;;;;;;;6.32;3.33;;;3.70;66.80;;;;;;6202423;23;20009;-59
2021/04/08 06:48:32;;;;;;;7.00;3.70;;;3.70;66.80;;;;;;6204730;23;20087;-59
2021/04/08 06:50:58;;;;;;;6.53;3.88;;;3.90;66.70;;;;;;6207725;23;20028;-59
2021/04/08 06:53:23;;;;;;;6.55;3.30;;;3.70;66.20;;;;;;6197205;23;20017;-59
2021/04/08 06:55:49;;;;;;;7.70;3.10;;;3.80;66.80;;;;;;6197605;23;20109;-59
2021/04/08 06:58:15;;;;;;;9.30;3.55;;;3.70;66.60;;;;;;6201769;23;20068;-59
2021/04/08 07:00:40;;;;;;;7.15;3.90;;;3.60;67.10;;;;;;6203691;23;20012;-59
2021/04/08 07:03:07;;;;;;;6.38;3.42;;;3.60;67.30;;;;;;6206216;23;20027;-59
2021/04/08 07:05:33;;;;;;;9.63;3.60;;;3.40;66.60;;;;;;6196152;23;20017;-60
2021/04/08 07:07:58;;;;;;;10.85;4.00;;;3.50;67.00;;;;;;6198076;23;20222;-59
2021/04/08 07:10:24;;;;;;;7.38;3.50;;;3.50;67.20;;;;;;6200474;23;20060;-60
2021/04/08 07:12:53;;;;;;;7.35;3.40;;;3.50;66.20;;;;;;6203211;23;20057;-63
2021/04/08 07:15:19;;;;;;;5.47;3.30;;;3.50;66.50;;;;;;6205374;23;20018;-62
2021/04/08 07:17:45;;;;;;;8.27;3.58;;;3.50;67.10;;;;;;6205888;23;20269;-61
2021/04/08 07:20:10;;;;;;;8.35;3.67;;;3.50;67.10;;;;;;6197681;23;20173;-61
2021/04/08 07:22:36;;;;;;;6.85;3.78;;;3.60;66.90;;;;;;6195554;23;20011;-61
2021/04/08 07:25:01;;;;;;;8.20;3.75;;;3.60;66.50;;;;;;6201981;23;20001;-61
2021/04/08 07:27:32;;;;;;;8.25;3.67;;;3.80;66.50;;;;;;6204221;23;20300;-61
2021/04/08 07:29:59;;;;;;;6.53;3.42;;;3.90;66.50;;;;;;6207060;23;20039;-61
2021/04/08 07:32:28;;;;;;;8.85;3.60;;;3.70;66.60;;;;;;6196865;23;20016;-61
2021/04/08 07:35:15;;;;;;;9.95;3.88;;;3.90;66.80;;;;;;6198654;23;20074;-61
2021/04/08 07:37:43;;;;;;;10.07;3.80;;;4.00;66.80;;;;;;6199450;23;20035;-61
2021/04/08 07:40:15;;;;;;;5.55;3.50;;;4.20;66.20;;;;;;6194951;23;20073;-62
2021/04/08 07:42:40;;;;;;;11.18;3.90;;;4.10;67.00;;;;;;6203237;23;20008;-61
2021/04/08 07:45:07;;;;;;;7.85;4.03;;;3.80;65.60;;;;;;6195882;23;19997;-61
2021/04/08 07:47:37;;;;;;;7.28;3.67;;;3.60;66.10;;;;;;6196314;23;20005;-61
2021/04/08 07:50:06;;;;;;;7.28;3.65;;;3.70;66.10;;;;;;6195101;23;20011;-61
2021/04/08 07:52:35;;;;;;;5.95;3.58;;;3.70;67.30;;;;;;6199950;23;20104;-61
2021/04/08 07:55:08;;;;;;;7.88;3.75;;;3.70;67.50;;;;;;6202328;23;20005;-61
2021/04/08 07:58:08;;;;;;;8.45;4.32;;;3.80;67.20;;;;;;6203392;23;20024;-61
2021/04/08 08:00:40;;;;;;;6.97;4.07;;;3.90;67.80;;;;;;6203545;23;20192;-61
2021/04/08 08:03:07;;;;;;;13.63;6.22;;;4.20;67.30;;;;;;6197107;23;20064;-61
2021/04/08 08:05:36;;;;;;;11.43;5.20;;;4.20;67.20;;;;;;6195908;23;20012;-61
2021/04/08 08:08:11;;;;;;;7.50;4.35;;;4.10;67.00;;;;;;6196981;23;20021;-61
2021/04/08 08:10:39;;;;;;;9.68;4.22;;;4.20;67.00;;;;;;6199080;23;20009;-62
2021/04/08 08:13:23;;;;;;;10.02;4.22;;;4.10;66.70;;;;;;6201171;23;20062;-61
2021/04/08 08:15:49;;;;;;;9.40;3.93;;;4.10;66.80;;;;;;6201088;23;20001;-62
2021/04/08 08:18:37;;;;;;;9.40;4.10;;;4.00;66.60;;;;;;6206490;23;20004;-62
2021/04/08 08:21:13;;;;;;;11.02;3.90;;;3.90;66.10;;;;;;6195413;23;20005;-62
2021/04/08 08:23:41;;;;;;;5.40;3.60;;;3.90;67.70;;;;;;6195157;23;20005;-62
2021/04/08 08:26:41;;;;;;;7.90;4.38;;;4.10;67.20;;;;;;6197004;23;20308;-62
2021/04/08 08:29:10;;;;;;;7.78;4.05;;;4.10;67.00;;;;;;6196767;23;20201;-61
2021/04/08 08:31:51;;;;;;;9.65;4.43;;;4.10;67.80;;;;;;6194478;23;20009;-63
2021/04/08 08:34:18;;;;;;;9.60;4.38;;;4.00;67.20;;;;;;6194772;23;20060;-61
2021/04/08 08:36:46;;;;;;;8.75;4.22;;;4.00;66.70;;;;;;6202363;23;20239;-61
2021/04/08 08:39:14;;;;;;;11.05;5.53;;;4.20;66.50;;;;;;6206686;23;20071;-61
2021/04/08 08:41:40;;;;;;;9.73;4.75;;;4.30;67.10;;;;;;6195062;23;20310;-62
2021/04/08 08:44:07;;;;;;;7.70;4.50;;;4.40;67.70;;;;;;6196186;23;20013;-62
2021/04/08 08:46:36;;;;;;;8.68;4.47;;;4.40;66.50;;;;;;6199085;23;20005;-62
2021/04/08 08:49:02;;;;;;;9.05;4.45;;;4.40;66.40;;;;;;6201297;23;20001;-62
2021/04/08 08:51:27;;;;;;;8.10;4.40;;;4.50;66.70;;;;;;6201361;23;20056;-62
2021/04/08 08:53:53;;;;;;;8.95;4.15;;;4.50;65.60;;;;;;6205093;23;19996;-62
2021/04/08 08:56:22;;;;;;;5.63;4.05;;;4.40;64.50;;;;;;6194354;23;20068;-62
2021/04/08 08:58:48;;;;;;;8.07;4.32;;;4.50;64.60;;;;;;6196300;23;20012;-62
2021/04/08 09:01:13;;;;;;;8.13;3.88;;;4.60;65.00;;;;;;6198976;23;20005;-62
2021/04/08 09:03:39;;;;;;;8.25;4.15;;;4.80;65.10;;;;;;6202758;23;20025;-61
2021/04/08 09:06:06;;;;;;;9.23;4.30;;;4.70;63.50;;;;;;6206231;23;20012;-61
2021/04/08 09:08:32;;;;;;;7.30;4.30;;;4.60;63.50;;;;;;6193258;23;20021;-62
2021/04/08 09:10:58;;;;;;;9.05;4.13;;;4.60;63.20;;;;;;6194402;23;20077;-61
2021/04/08 09:13:24;;;;;;;10.02;4.30;;;4.90;64.00;;;;;;6199424;23;20052;-63
2021/04/08 09:15:50;;;;;;;7.57;4.43;;;5.00;64.10;;;;;;6200585;23;20047;-62
2021/04/08 09:18:19;;;;;;;7.82;4.78;;;5.10;64.30;;;;;;6206562;23;19993;-62
2021/04/08 09:20:45;;;;;;;12.73;4.72;;;5.20;64.60;;;;;;6195072;23;20032;-62
2021/04/08 09:23:12;;;;;;;13.07;4.57;;;5.30;64.90;;;;;;6195550;23;20001;-62
2021/04/08 09:25:39;;;;;;;9.88;4.75;;;5.40;64.10;;;;;;6198738;23;20011;-62
2021/04/08 09:28:09;;;;;;;9.77;5.10;;;5.50;64.80;;;;;;6200728;23;20013;-62
2021/04/08 09:33:42;;;;;;;11.35;4.18;;;5.70;62.80;;;;;;6203667;23;20280;-62
2021/04/08 09:36:26;;;;;;;8.25;4.13;;;5.90;61.60;;;;;;6196274;23;20004;-62
2021/04/08 09:38:55;;;;;;;8.80;4.80;;;6.10;64.30;;;;;;6195035;23;20016;-61
2021/04/08 09:41:44;;;;;;;8.65;4.43;;;6.20;62.70;;;;;;6195829;23;20009;-61
2021/04/08 09:44:11;;;;;;;9.45;4.07;;;6.30;59.80;;;;;;6196167;23;20001;-61
2021/04/08 09:46:58;;;;;;;9.27;4.32;;;6.30;59.70;;;;;;6192270;23;20016;-61
2021/04/08 09:49:38;;;;;;;12.35;4.25;;;6.40;60.40;;;;;;6199468;23;20059;-61
2021/04/08 09:52:05;;;;;;;8.80;4.28;;;6.40;58.20;;;;;;6193928;23;20005;-60
2021/04/08 09:54:51;;;;;;;7.45;3.97;;;6.10;55.50;;;;;;6203511;23;20005;-60
2021/04/08 09:57:43;;;;;;;7.38;3.97;;;6.00;56.00;;;;;;6206084;23;20008;-61
2021/04/08 10:00:13;;;;;;;16.13;4.03;;;6.00;56.20;;;;;;6189450;23;20009;-61
2021/04/08 10:02:54;;;;;;;7.22;4.43;;;5.90;55.90;;;;;;6215562;23;20170;-60
2021/04/08 10:05:19;;;;;;;6.32;3.88;;;5.90;57.60;;;;;;6187196;23;20012;-60
2021/04/08 10:07:48;;;;;;;8.10;4.70;;;5.90;57.30;;;;;;6199374;23;20076;-60
2021/04/08 10:10:14;;;;;;;8.75;4.72;;;6.00;57.80;;;;;;6201778;23;20124;-61
2021/04/08 10:12:40;;;;;;;8.40;4.55;;;6.00;58.80;;;;;;6204280;23;20001;-60
2021/04/08 10:15:06;;;;;;;7.55;4.15;;;6.10;58.00;;;;;;6208101;23;20045;-60
2021/04/08 10:17:39;;;;;;;7.88;4.70;;;6.10;58.50;;;;;;6196228;23;20005;-60
2021/04/08 10:20:06;;;;;;;9.65;3.95;;;6.30;57.50;;;;;;6198843;23;20064;-60
2021/04/08 10:22:42;;;;;;;9.55;3.92;;;6.00;56.80;;;;;;6200632;23;20020;-61
2021/04/08 10:25:08;;;;;;;8.65;4.20;;;5.90;56.30;;;;;;6202506;23;20001;-60
2021/04/08 10:27:34;;;;;;;9.55;4.10;;;6.00;57.50;;;;;;6203026;23;20001;-61
2021/04/08 10:29:59;;;;;;;8.57;4.95;;;6.30;58.00;;;;;;6207617;23;20315;-61
2021/04/08 10:32:36;;;;;;;11.68;4.68;;;6.40;58.70;;;;;;6194687;23;20064;-61
2021/04/08 10:35:02;;;;;;;9.25;4.07;;;6.50;57.80;;;;;;6198636;23;20204;-60
2021/04/08 10:37:27;;;;;;;7.57;4.03;;;6.70;58.00;;;;;;6200762;23;20359;-61
2021/04/08 10:39:53;;;;;;;9.85;4.88;;;6.80;57.50;;;;;;6202963;23;20004;-60
2021/04/08 10:42:20;;;;;;;7.68;3.92;;;6.80;56.20;;;;;;6195710;23;20000;-60
2021/04/08 10:44:51;;;;;;;8.95;4.13;;;6.90;56.10;;;;;;6207447;23;20039;-60
2021/04/08 10:47:18;;;;;;;;;;;7.10;54.80;;;;;;6198151;23;20016;-60
2021/04/08 10:49:55;;;;;;;11.00;4.60;;;7.30;56.00;;;;;;6195593;23;20091;-61
2021/04/08 10:52:25;;;;;;;7.30;4.30;;;7.60;55.30;;;;;;6201089;23;20039;-61
2021/04/08 10:54:55;;;;;;;7.88;3.67;;;7.90;55.50;;;;;;6202965;23;19997;-60
2021/04/08 10:57:21;;;;;;;7.40;3.90;;;7.80;53.60;;;;;;6204112;23;19997;-61
2021/04/08 10:59:48;;;;;;;5.43;3.75;;;7.60;52.60;;;;;;6207317;23;20146;-61
2021/04/08 11:02:28;;;;;;;8.65;4.18;;;7.20;52.60;;;;;;6197679;23;20017;-61
2021/04/08 11:04:56;;;;;;;6.78;4.38;;;7.30;52.20;;;;;;6198894;23;20066;-60
2021/04/08 11:07:22;;;;;;;8.52;4.95;;;7.10;52.20;;;;;;6200713;23;20308;-60
2021/04/08 11:09:48;;;;;;;6.75;4.25;;;7.20;51.50;;;;;;6203640;23;20072;-60
2021/04/08 11:12:20;;;;;;;10.23;4.70;;;7.20;51.50;;;;;;6207207;23;20004;-60
2021/04/08 11:14:48;;;;;;;7.57;4.53;;;7.50;52.70;;;;;;6195375;23;20072;-60
2021/04/08 11:17:13;;;;;;;11.07;3.90;;;7.90;54.00;;;;;;6196181;23;20013;-60
2021/04/08 11:19:40;;;;;;;9.00;3.97;;;7.90;51.60;;;;;;6199801;23;20329;-60
2021/04/08 11:22:09;;;;;;;7.25;4.32;;;8.10;51.60;;;;;;6201844;23;20005;-60
2021/04/08 11:24:35;;;;;;;8.57;4.32;;;8.00;50.50;;;;;;6203755;23;20073;-60
2021/04/08 11:27:00;;;;;;;10.52;4.03;;;8.20;51.40;;;;;;6207216;23;20001;-60
2021/04/08 11:29:27;;;;;;;8.75;4.85;;;8.20;49.00;;;;;;6195286;23;20162;-60
2021/04/08 11:32:06;;;;;;;12.48;4.50;;;8.50;49.60;;;;;;6195306;23;20037;-60
2021/04/08 11:34:52;;;;;;;6.50;4.10;;;8.40;49.60;;;;;;6199789;23;20020;-60
2021/04/08 11:37:38;;;;;;;6.88;3.90;;;8.40;48.50;;;;;;6199551;23;20013;-60
2021/04/08 11:40:05;;;;;;;6.32;3.72;;;8.50;48.00;;;;;;6194639;23;20005;-60
2021/04/08 11:42:36;;;;;;;5.90;3.63;;;8.60;47.10;;;;;;6194694;23;20005;-60
2021/04/08 11:45:21;;;;;;;7.30;3.85;;;8.30;47.80;;;;;;6207092;23;19997;-60
2021/04/08 11:48:05;;;;;;;5.35;3.63;;;8.20;46.80;;;;;;6195989;23;19997;-60
2021/04/08 11:50:41;;;;;;;7.93;4.25;;;8.20;47.80;;;;;;6195766;23;20005;-61
2021/04/08 11:53:29;;;;;;;7.03;4.35;;;8.20;48.40;;;;;;6197616;23;20011;-62
2021/04/08 11:55:54;;;;;;;10.38;4.65;;;8.20;49.10;;;;;;6197996;23;20012;-66
2021/04/08 11:58:25;;;;;;;6.70;4.07;;;8.10;46.70;;;;;;6200318;23;20005;-62
2021/04/08 12:00:51;;;;;;;6.90;3.97;;;7.90;47.50;;;;;;6195370;23;20332;-62
2021/04/08 12:03:18;;;;;;;7.22;4.03;;;8.10;48.30;;;;;;6207220;23;20008;-62
2021/04/08 12:05:44;;;;;;;9.35;4.15;;;7.90;48.60;;;;;;6195548;23;20010;-63
2021/04/08 12:08:11;;;;;;;11.90;4.60;;;7.90;49.20;;;;;;6195460;23;20368;-62
2021/04/08 12:10:36;;;;;;;7.85;4.50;;;7.90;49.30;;;;;;6199218;23;20088;-62
2021/04/08 12:13:04;;;;;;;8.70;4.65;;;8.00;49.70;;;;;;6201470;23;20011;-63
2021/04/08 12:15:37;;;;;;;9.07;4.90;;;8.10;50.00;;;;;;6203683;23;19997;-63
2021/04/08 12:18:19;;;;;;;9.93;4.70;;;8.10;50.20;;;;;;6206276;23;19997;-61
2021/04/08 12:20:48;;;;;;;7.85;4.28;;;8.50;53.00;;;;;;6195509;23;20009;-62
2021/04/08 12:23:15;;;;;;;9.43;5.25;;;8.80;49.90;;;;;;6196443;23;20068;-61
2021/04/08 12:25:42;;;;;;;7.35;4.50;;;8.80;52.10;;;;;;6198727;23;20064;-61
2021/04/08 12:28:07;;;;;;;9.20;4.43;;;9.00;50.80;;;;;;6200842;23;20013;-61
2021/04/08 12:30:33;;;;;;;8.35;4.28;;;9.10;49.90;;;;;;6203261;23;20004;-62
2021/04/08 12:32:59;;;;;;;7.85;4.22;;;8.80;49.10;;;;;;6205284;23;20001;-64
2021/04/08 12:35:24;;;;;;;6.20;4.47;;;8.90;49.20;;;;;;6196167;23;20284;-64
2021/04/08 12:37:50;;;;;;;8.43;4.25;;;8.70;48.00;;;;;;6197945;23;20021;-66
2021/04/08 12:40:16;;;;;;;9.85;4.05;;;8.70;48.40;;;;;;6200165;23;20012;-62
2021/04/08 12:42:41;;;;;;;9.30;4.15;;;8.60;46.90;;;;;;6202609;23;20005;-67
2021/04/08 12:45:07;;;;;;;9.90;4.38;;;8.40;47.10;;;;;;6206196;23;20228;-64
2021/04/08 12:47:33;;;;;;;7.38;4.20;;;8.40;45.70;;;;;;6194781;23;20012;-63
2021/04/08 12:49:58;;;;;;;6.35;3.90;;;8.40;45.90;;;;;;6197126;23;20001;-64
2021/04/08 12:52:24;;;;;;;7.78;4.70;;;8.50;46.80;;;;;;6199797;23;20009;-63
2021/04/08 12:54:49;;;;;;;12.25;3.97;;;8.40;47.10;;;;;;6201978;23;20005;-63
2021/04/08 12:57:14;;;;;;;12.13;4.47;;;8.30;48.10;;;;;;6206099;23;20005;-63
2021/04/08 12:59:40;;;;;;;8.48;4.70;;;8.20;47.90;;;;;;6194069;23;20205;-62
2021/04/08 13:02:06;;;;;;;6.88;4.50;;;8.30;48.10;;;;;;6196475;23;20001;-61
2021/04/08 13:04:31;;;;;;;10.43;4.53;;;8.20;47.80;;;;;;6199428;23;20012;-66
2021/04/08 13:06:57;;;;;;;7.97;4.50;;;8.20;48.20;;;;;;6201312;23;20095;-64